Locust Hill, Kentucky
Current Conditions -  °F | °C
As of 2:58 AM on Friday 24 Oct 2014 (Local Time) from KFTK Reporting Station
Overcast Overcast  
Wind Chill: 42°   Ceiling: 18000
Heat Index: 42°   Visibility: 10mi
Dew Point: 40°   Wind: 0mph
Humidity: 93%   Direction: NA
Pressure: 30.1"   Gusts: NA
Location:  37.7463°N, 86.3536°W
Report Text: KFTK 240758Z AUTO 00000KT 10SM OVC180 06/05 A3010 RMK AO2 SLP196 T00570046
Loading
Personal Weather Stations






























Interactive Weather Map
Tropical Storm Tracking
New forecast layout! Learn more

10-Day Weather Forecast

Advertisements
Track Severe Weather on mobile